createdAt,value
2022-10-04T00:02:18.560Z,66.45
2022-10-04T00:05:06.057Z,66.15
2022-10-04T00:07:45.820Z,66.23
2022-10-04T00:10:17.956Z,66.40
2022-10-04T00:12:59.081Z,66.60
2022-10-04T00:15:38.485Z,66.55
2022-10-04T00:18:13.602Z,66.61
2022-10-04T00:20:51.025Z,66.51
2022-10-04T00:23:26.939Z,66.72
2022-10-04T00:26:03.275Z,66.58
2022-10-04T00:28:40.414Z,66.60
2022-10-04T00:31:19.680Z,66.80
2022-10-04T00:33:55.910Z,67.04
2022-10-04T00:36:26.442Z,66.98
2022-10-04T00:39:18.162Z,67.26
2022-10-04T00:41:50.049Z,67.33
2022-10-04T00:44:47.733Z,67.18
2022-10-04T00:47:54.052Z,67.43
2022-10-04T00:50:40.373Z,67.60
2022-10-04T00:53:38.466Z,67.85
2022-10-04T00:56:37.634Z,67.84
2022-10-04T00:59:18.065Z,67.79
2022-10-04T01:01:52.932Z,67.74
2022-10-04T01:04:46.017Z,67.78
2022-10-04T01:07:23.046Z,67.86
2022-10-04T01:09:57.585Z,67.69
2022-10-04T01:12:39.351Z,67.78
2022-10-04T01:15:37.621Z,67.82
2022-10-04T01:18:29.944Z,67.99
2022-10-04T01:21:22.883Z,67.97
2022-10-04T01:24:15.960Z,67.92
2022-10-04T01:26:48.149Z,67.75
2022-10-04T01:39:04.849Z,67.84
2022-10-04T01:41:42.126Z,67.66
2022-10-04T01:44:21.524Z,68.09
2022-10-04T01:46:54.856Z,67.87
2022-10-04T01:49:31.849Z,67.85
2022-10-04T01:52:15.707Z,67.83
2022-10-04T01:54:53.458Z,68.06
2022-10-04T01:57:32.543Z,67.92
2022-10-04T02:00:08.654Z,68.10
2022-10-04T02:03:29.728Z,68.26
2022-10-04T02:06:05.788Z,68.17
2022-10-04T02:08:42.345Z,68.01
2022-10-04T02:11:20.910Z,68.39
2022-10-04T02:13:54.275Z,68.41
2022-10-04T02:16:25.154Z,68.60
2022-10-04T02:18:55.965Z,68.52
2022-10-04T02:22:15.768Z,68.56
2022-10-04T02:24:50.599Z,68.77
2022-10-04T04:11:54.882Z,70.24
2022-10-04T04:14:30.232Z,70.74
2022-10-04T04:17:29.860Z,70.67
2022-10-04T04:20:07.583Z,70.47
2022-10-04T04:22:39.705Z,70.39
2022-10-04T04:25:16.733Z,70.43
2022-10-04T04:27:49.971Z,70.63
2022-10-04T04:30:20.724Z,70.60
2022-10-04T04:33:21.269Z,70.25
2022-10-04T04:35:56.148Z,70.54
2022-10-04T04:38:27.253Z,70.75
2022-10-04T04:40:57.783Z,70.74
2022-10-04T04:43:28.869Z,70.99
2022-10-04T04:46:25.602Z,70.69
2022-10-04T04:49:01.761Z,70.93
2022-10-04T04:51:33.867Z,70.91
2022-10-04T04:54:11.735Z,70.82
2022-10-04T05:38:21.779Z,70.94
2022-10-04T05:40:57.561Z,71.14
2022-10-04T05:43:41.999Z,70.87
2022-10-04T05:46:19.642Z,71.02
2022-10-04T05:48:56.640Z,71.05
2022-10-04T05:51:30.265Z,71.01
2022-10-04T05:54:02.513Z,71.14
2022-10-04T05:57:19.784Z,70.88
2022-10-04T06:00:21.407Z,70.90
2022-10-04T06:03:02.675Z,70.81
2022-10-04T06:05:43.035Z,71.02
2022-10-04T06:08:42.948Z,70.95
2022-10-04T06:11:16.288Z,70.85
2022-10-04T06:14:34.091Z,70.93
2022-10-04T06:17:06.563Z,70.67
2022-10-04T06:20:29.799Z,70.80
2022-10-04T06:23:01.954Z,70.64
2022-10-04T06:25:43.088Z,70.45
2022-10-04T06:28:21.401Z,70.58
2022-10-04T06:31:10.177Z,70.31
2022-10-04T06:34:02.351Z,70.23
2022-10-04T06:36:43.619Z,69.20
2022-10-04T06:40:07.990Z,68.54
2022-10-04T06:42:38.158Z,68.53
2022-10-04T06:45:21.780Z,66.69
2022-10-04T06:48:13.810Z,66.34
2022-10-04T06:50:45.136Z,65.79
2022-10-04T06:53:31.680Z,64.95
2022-10-04T06:56:18.137Z,64.78
2022-10-04T06:59:09.298Z,65.62
2022-10-04T07:01:52.635Z,66.76
2022-10-04T07:05:06.861Z,67.08
2022-10-04T07:07:39.250Z,67.58
2022-10-04T07:10:33.480Z,67.93
2022-10-04T07:13:33.657Z,68.50
2022-10-04T07:16:17.407Z,68.25
2022-10-04T07:18:56.903Z,66.84
2022-10-04T07:21:41.504Z,63.79
2022-10-04T07:24:21.085Z,62.86
2022-10-04T07:26:54.202Z,63.29
2022-10-04T07:29:31.451Z,63.73
2022-10-04T07:32:13.287Z,63.49
2022-10-04T07:34:44.519Z,62.85
2022-10-04T07:37:14.908Z,64.17
2022-10-04T07:40:04.648Z,65.49
2022-10-04T07:42:45.811Z,65.65
2022-10-04T07:45:29.152Z,66.09
2022-10-04T07:48:25.593Z,67.00
2022-10-04T07:50:59.310Z,67.16
2022-10-04T07:53:35.055Z,67.09
2022-10-04T07:56:23.187Z,67.61
2022-10-04T07:59:33.546Z,67.60
2022-10-04T08:02:47.057Z,67.52
2022-10-04T08:05:22.421Z,67.72
2022-10-04T08:08:20.233Z,67.86
2022-10-04T08:10:57.550Z,67.95
2022-10-04T08:14:02.955Z,67.95
2022-10-04T08:17:09.783Z,66.34
2022-10-04T08:20:05.738Z,65.47
2022-10-04T08:22:56.958Z,66.11
2022-10-04T08:25:43.260Z,66.12
2022-10-04T08:28:42.504Z,66.71
2022-10-04T08:31:22.467Z,67.05
2022-10-04T08:34:48.281Z,66.99
2022-10-04T08:37:49.164Z,67.04
2022-10-04T08:41:10.575Z,67.36
2022-10-04T08:44:18.022Z,67.30
2022-10-04T08:50:47.191Z,67.07
2022-10-04T08:53:53.191Z,67.07
2022-10-04T08:56:52.387Z,66.95
2022-10-04T08:59:28.294Z,67.01
2022-10-04T09:11:42.761Z,66.24
2022-10-04T09:14:54.760Z,65.66
2022-10-04T09:17:53.501Z,64.90
2022-10-04T09:20:49.780Z,64.44
2022-10-04T09:23:37.754Z,64.76
2022-10-04T09:26:46.005Z,63.92
2022-10-04T09:29:35.119Z,62.64
2022-10-04T09:32:13.567Z,61.54
2022-10-04T09:35:19.914Z,61.39
2022-10-04T09:38:20.757Z,62.50
2022-10-04T09:41:21.527Z,63.35
2022-10-04T09:44:46.446Z,61.30
2022-10-04T09:47:38.391Z,58.95
2022-10-04T09:50:32.439Z,58.96
2022-10-04T09:53:07.119Z,59.06
2022-10-04T09:56:28.300Z,58.69
2022-10-04T09:59:28.276Z,58.97
2022-10-04T10:02:21.428Z,60.46
2022-10-04T10:05:20.519Z,60.57
2022-10-04T10:07:52.499Z,60.86
2022-10-04T10:11:09.417Z,60.98
2022-10-04T10:14:17.076Z,60.57
2022-10-04T10:17:36.904Z,60.44
2022-10-04T10:20:34.923Z,59.65
2022-10-04T10:23:36.284Z,59.87
2022-10-04T10:26:11.383Z,59.49
2022-10-04T10:29:21.712Z,60.16
2022-10-04T10:32:28.429Z,60.06
2022-10-04T10:35:16.698Z,59.85
2022-10-04T10:38:03.624Z,60.68
2022-10-04T10:41:11.024Z,61.02
2022-10-04T10:43:53.815Z,60.50
2022-10-04T10:46:32.810Z,60.67
2022-10-04T10:49:41.713Z,60.96
2022-10-04T10:52:42.795Z,60.80
2022-10-04T10:55:49.554Z,60.45
2022-10-04T10:58:18.879Z,59.57
2022-10-04T11:01:10.024Z,59.18
2022-10-04T11:04:24.420Z,59.68
2022-10-04T11:07:16.752Z,60.08
2022-10-04T11:10:23.456Z,58.81
2022-10-04T11:13:48.470Z,58.04
2022-10-04T11:16:57.780Z,57.90
2022-10-04T11:19:34.887Z,58.25
2022-10-04T11:22:38.641Z,57.94
2022-10-04T11:25:30.220Z,57.47
2022-10-04T11:28:52.643Z,56.73
2022-10-04T11:32:06.012Z,57.27
2022-10-04T11:35:01.953Z,56.71
2022-10-04T11:41:11.282Z,56.47
2022-10-04T11:44:24.890Z,56.93
2022-10-04T11:47:06.879Z,57.38
2022-10-04T11:50:23.227Z,57.05
2022-10-04T11:53:22.422Z,57.61
2022-10-04T11:56:04.822Z,57.64
2022-10-04T11:58:54.725Z,57.72
2022-10-04T12:01:54.200Z,57.37
2022-10-04T12:05:02.165Z,56.93
2022-10-04T12:08:02.485Z,57.42
2022-10-04T12:10:40.761Z,57.49
2022-10-04T12:13:35.046Z,57.43
2022-10-04T12:16:16.344Z,57.41
2022-10-04T12:19:16.052Z,57.21
2022-10-04T12:21:51.759Z,57.25
2022-10-04T12:24:27.755Z,57.47
2022-10-04T12:27:31.529Z,57.26
2022-10-04T12:30:22.295Z,57.32
2022-10-04T12:32:57.904Z,57.70
2022-10-04T12:35:59.279Z,57.42
2022-10-04T12:38:50.539Z,56.98
2022-10-04T12:41:27.163Z,56.44
2022-10-04T12:44:29.987Z,55.93
2022-10-04T12:47:34.655Z,55.60
2022-10-04T12:50:15.755Z,55.86
2022-10-04T12:53:22.636Z,56.12
2022-10-04T12:56:28.616Z,56.05
2022-10-04T12:59:04.220Z,56.34
2022-10-04T13:01:52.273Z,56.28
2022-10-04T13:04:37.070Z,56.36
2022-10-04T13:07:45.117Z,56.69
2022-10-04T13:10:44.909Z,56.48
2022-10-04T13:14:00.265Z,56.44
2022-10-04T13:17:30.275Z,56.44
2022-10-04T13:20:16.163Z,56.21
2022-10-04T13:23:20.205Z,56.24
2022-10-04T13:26:54.000Z,56.21
2022-10-04T13:29:30.975Z,56.18
2022-10-04T13:32:03.372Z,56.07
2022-10-04T13:34:50.113Z,56.06
2022-10-04T13:54:52.352Z,55.77
2022-10-04T13:57:31.450Z,55.68
2022-10-04T14:00:07.753Z,55.50
2022-10-04T14:03:43.395Z,55.04
2022-10-04T14:06:12.909Z,54.83
2022-10-04T14:09:11.358Z,54.92
2022-10-04T14:12:18.181Z,54.62
2022-10-04T14:15:22.117Z,53.95
2022-10-04T14:18:26.948Z,54.50
2022-10-04T14:21:24.270Z,54.35
2022-10-04T14:24:34.886Z,54.40
2022-10-04T14:27:22.825Z,53.78
2022-10-04T14:30:19.057Z,54.12
2022-10-04T14:33:12.944Z,53.99
2022-10-04T14:36:03.749Z,53.59
2022-10-04T14:38:47.844Z,53.77
2022-10-04T14:41:52.886Z,54.10
2022-10-04T14:44:45.186Z,54.33
2022-10-04T14:48:05.721Z,54.13
2022-10-04T14:50:47.912Z,54.06
2022-10-04T14:53:42.355Z,54.16
2022-10-04T14:56:52.775Z,54.12
2022-10-04T14:59:36.586Z,54.09
2022-10-04T15:02:24.011Z,53.90
2022-10-04T15:05:24.506Z,53.99
2022-10-04T15:07:59.894Z,53.99
2022-10-04T15:10:37.883Z,53.91
2022-10-04T15:13:19.063Z,53.87
2022-10-04T15:16:14.499Z,53.68
2022-10-04T15:18:56.486Z,53.66
2022-10-04T15:21:50.970Z,53.80
2022-10-04T15:24:21.839Z,53.75
2022-10-04T15:26:55.593Z,53.79
2022-10-04T15:29:32.470Z,53.92
2022-10-04T15:32:33.176Z,53.84
2022-10-04T15:35:15.777Z,53.82
2022-10-04T15:38:03.187Z,53.68
2022-10-04T15:41:02.451Z,53.85
2022-10-04T15:43:50.547Z,53.85
2022-10-04T15:46:42.339Z,54.04
2022-10-04T15:49:52.926Z,53.85
2022-10-04T15:52:52.810Z,54.07
2022-10-04T15:55:31.867Z,54.27
2022-10-04T15:58:03.326Z,54.18
2022-10-04T16:00:44.267Z,54.31
2022-10-04T16:04:16.009Z,54.22
2022-10-04T16:07:01.253Z,54.22
2022-10-04T16:09:48.198Z,54.37
2022-10-04T16:12:36.853Z,54.34
2022-10-04T16:15:38.843Z,54.52
2022-10-04T16:18:37.375Z,54.73
2022-10-04T16:21:25.134Z,54.86
2022-10-04T16:24:24.084Z,54.95
2022-10-04T16:26:53.049Z,55.17
2022-10-04T16:29:32.247Z,55.22
2022-10-04T16:32:22.003Z,55.39
2022-10-04T16:35:01.236Z,55.22
2022-10-04T16:37:44.416Z,55.38
2022-10-04T16:40:32.998Z,55.45
2022-10-04T16:43:17.361Z,55.65
2022-10-04T16:46:18.064Z,55.58
2022-10-04T16:49:18.957Z,55.81
2022-10-04T16:52:06.851Z,55.93
2022-10-04T16:55:01.537Z,55.90
2022-10-04T16:57:31.085Z,55.97
2022-10-04T17:00:34.097Z,56.00
2022-10-04T17:03:07.533Z,55.98
2022-10-04T17:05:48.383Z,56.17
2022-10-04T17:08:18.513Z,56.34
2022-10-04T17:10:50.573Z,56.44
2022-10-04T17:13:46.124Z,56.58
2022-10-04T17:16:33.613Z,56.68
2022-10-04T17:19:36.437Z,56.78
2022-10-04T17:22:37.998Z,56.88
2022-10-04T17:25:08.886Z,57.05
2022-10-04T17:27:50.670Z,56.96
2022-10-04T17:30:23.656Z,57.09
2022-10-04T17:33:15.320Z,57.26
2022-10-04T17:36:01.219Z,57.33
2022-10-04T17:38:30.592Z,57.51
2022-10-04T17:41:21.505Z,57.43
2022-10-04T17:43:57.265Z,57.67
2022-10-04T17:47:04.815Z,57.66
2022-10-04T17:50:37.737Z,57.73
2022-10-04T17:53:38.130Z,57.99
2022-10-04T17:56:12.143Z,58.36
2022-10-04T17:59:06.036Z,58.28
2022-10-04T18:01:42.476Z,58.38
2022-10-04T18:04:30.603Z,58.51
2022-10-04T18:07:24.255Z,58.33
2022-10-04T18:09:57.318Z,58.49
2022-10-04T18:13:02.845Z,58.79
2022-10-04T18:15:44.024Z,58.54
2022-10-04T18:18:29.052Z,58.74
2022-10-04T18:21:09.465Z,58.66
2022-10-04T18:23:39.943Z,58.81
2022-10-04T18:26:21.259Z,58.89
2022-10-04T18:28:54.538Z,58.91
2022-10-04T18:31:32.081Z,59.11
2022-10-04T18:34:16.914Z,59.32
2022-10-04T18:36:58.801Z,59.54
2022-10-04T18:39:28.901Z,59.24
2022-10-04T18:42:18.415Z,59.52
2022-10-04T18:45:21.915Z,59.69
2022-10-04T18:47:54.411Z,59.38
2022-10-04T18:50:36.182Z,59.53
2022-10-04T18:53:32.832Z,59.61
2022-10-04T18:56:09.964Z,59.85
2022-10-04T18:59:38.764Z,59.89
2022-10-04T19:02:49.026Z,59.84
2022-10-04T19:05:33.079Z,60.25
2022-10-04T19:11:56.159Z,60.23
2022-10-04T19:14:51.316Z,60.19
2022-10-04T19:17:46.653Z,60.31
2022-10-04T19:20:41.887Z,60.38
2022-10-04T19:23:20.563Z,60.60
2022-10-04T19:26:26.306Z,60.65
2022-10-04T19:28:59.131Z,60.62
2022-10-04T19:31:40.680Z,60.90
2022-10-04T19:34:35.013Z,60.73
2022-10-04T19:37:14.830Z,61.01
2022-10-04T19:39:59.234Z,60.88
2022-10-04T19:43:10.475Z,61.28
2022-10-04T19:46:23.893Z,61.16
2022-10-04T19:48:56.548Z,61.35
2022-10-04T19:51:28.768Z,61.39
2022-10-04T19:54:15.850Z,61.64
2022-10-04T19:56:49.356Z,61.53
2022-10-04T19:59:52.034Z,61.67
2022-10-04T20:02:23.025Z,61.55
2022-10-04T20:04:54.734Z,61.38
2022-10-04T20:07:29.347Z,61.54
2022-10-04T20:10:37.255Z,61.79
2022-10-04T20:13:24.841Z,61.82
2022-10-04T20:15:57.057Z,62.00
2022-10-04T20:18:33.190Z,62.16
2022-10-04T20:21:29.507Z,62.03
2022-10-04T20:24:01.881Z,62.26
2022-10-04T20:27:06.518Z,62.36
2022-10-04T20:29:38.083Z,62.65
2022-10-04T20:32:37.278Z,62.70
2022-10-04T20:35:13.973Z,62.54
2022-10-04T20:38:27.778Z,62.73
2022-10-04T20:40:55.504Z,62.67
2022-10-04T20:43:26.912Z,62.85
2022-10-04T20:45:57.503Z,62.93
2022-10-04T20:48:29.350Z,63.22
2022-10-04T20:51:11.310Z,63.09
2022-10-04T20:53:51.227Z,63.28
2022-10-04T20:56:33.101Z,63.20
2022-10-04T20:59:03.741Z,63.24
2022-10-04T21:01:37.662Z,63.26
2022-10-04T21:04:43.694Z,63.43
2022-10-04T21:07:19.760Z,63.32
2022-10-04T21:09:54.233Z,63.49
2022-10-04T21:12:39.060Z,63.63
2022-10-04T21:15:30.334Z,63.51
2022-10-04T21:18:07.603Z,63.69
2022-10-04T21:20:52.245Z,63.84
2022-10-04T21:23:35.699Z,63.89
2022-10-04T21:26:26.289Z,63.88
2022-10-04T21:28:58.459Z,64.01
2022-10-04T21:31:28.374Z,64.31
2022-10-04T21:33:58.215Z,64.15
2022-10-04T21:36:27.339Z,64.45
2022-10-04T21:38:59.613Z,64.19
2022-10-04T21:41:30.136Z,64.31
2022-10-04T21:43:59.176Z,64.56
2022-10-04T21:46:31.358Z,64.83
2022-10-04T21:49:06.648Z,64.64
2022-10-04T21:51:37.732Z,64.61
2022-10-04T21:54:08.069Z,65.00
2022-10-04T21:56:37.098Z,64.92
2022-10-04T21:59:07.494Z,64.89
2022-10-04T22:01:38.336Z,64.96
2022-10-04T22:04:09.327Z,65.04
2022-10-04T22:06:40.954Z,65.09
2022-10-04T22:09:10.330Z,65.22
2022-10-04T22:11:42.617Z,65.33
2022-10-04T22:14:11.436Z,65.21
2022-10-04T22:16:42.056Z,65.29
2022-10-04T22:19:12.664Z,65.22
2022-10-04T22:21:42.277Z,65.43
2022-10-04T22:24:18.083Z,65.35
2022-10-04T22:26:49.645Z,65.58
2022-10-04T22:29:23.689Z,65.48
2022-10-04T22:31:53.404Z,65.50
2022-10-04T22:34:25.595Z,65.44
2022-10-04T22:36:54.513Z,65.34
2022-10-04T22:39:26.677Z,65.56
2022-10-04T22:41:59.361Z,65.49
2022-10-04T22:44:32.317Z,65.83
2022-10-04T22:47:03.734Z,65.56
2022-10-04T22:49:37.987Z,65.71
2022-10-04T22:52:14.113Z,65.78
2022-10-04T22:54:48.561Z,65.92
2022-10-04T22:57:19.981Z,65.91
2022-10-04T22:59:52.364Z,66.07
2022-10-04T23:02:27.081Z,66.08
2022-10-04T23:04:59.637Z,65.93
2022-10-04T23:07:29.371Z,65.88
2022-10-04T23:09:59.666Z,66.17
2022-10-04T23:12:28.794Z,66.22
2022-10-04T23:15:03.338Z,66.31
2022-10-04T23:17:37.077Z,66.14
2022-10-04T23:20:14.388Z,66.38
2022-10-04T23:22:47.972Z,66.40
2022-10-04T23:25:25.017Z,66.52
2022-10-04T23:27:58.984Z,66.50
2022-10-04T23:30:32.711Z,66.75
2022-10-04T23:33:04.408Z,66.59
2022-10-04T23:35:34.918Z,66.60
2022-10-04T23:38:07.674Z,66.76
2022-10-04T23:40:37.148Z,66.78
2022-10-04T23:43:13.422Z,66.94
2022-10-04T23:45:47.796Z,66.75
2022-10-04T23:48:32.716Z,66.69
2022-10-04T23:51:02.317Z,67.00
2022-10-04T23:53:34.136Z,66.85
2022-10-04T23:56:12.119Z,67.06
2022-10-04T23:58:42.236Z,66.99
